Terminal Aerodrome Forecast
Issued by NWS Amarillo, TX

Home | Current Version | Previous Version | Text Only | Print | Product List | Glossary On
Versions: 1 2 3 4 5 6 7 8 9 10 11 12 13 14
815
FTUS44 KAMA 241134
TAFGUY
TAF
KGUY 241134Z 2412/2512 30008KT P6SM SCT150
     FM242200 16009KT P6SM VCTS SCT080CB PROB30 2500/2506 P6SM -TSRA
      BKN080CB
     FM250800 34006KT P6SM OVC200=

USA.gov is the U.S. government's official web portal to all federal, state and local government web resources and services.